Rossford, Ohio
Current Conditions -  °F | °C
As of 6:53 AM on Thursday 27 Nov 2014 (Local Time) from KTDZ Reporting Station
Overcast Overcast  
Wind Chill: -7°   Ceiling: 5500
Heat Index: -2°   Visibility: 10mi
Dew Point: -6°   Wind: 10mph
Humidity: 75%   Direction: 320°NW
Pressure: 30.15"   Gusts: NA
Location:  41.61°N, 83.56°W
Report Text: KTDZ 271153Z AUTO 32009KT 10SM OVC055 M02/M06 A3015 RMK AO2 SLP216 T10171056 10000 21017 53013 TSNO
Loading
Personal Weather Stations






























Interactive Weather Map New forecast layout! Learn more

10-Day Weather Forecast

Advertisements
Track Severe Weather on mobile